KOGA/OGA METAR and TAF weather

Enter ICAO airport designator
Station Type Date Time Source
KOGA METAR 2020/09/19 21:35 UTC NOAA

KOGA 192135Z AUTO 18020G28KT 10SM CLR 31/06 A2991 RMK AO2 T03100059


Station Type Date Time Source
KOGA Decoded METAR 2020/09/19 21:35 UTC NOAA

Ogallala, Searle Field Airport, NE, United States (KOGA) 41-07-11N 101-46-08W
Sep 19, 2020 - 05:35 PM EDT / 2020.09.19 2135 UTC
Wind: from the S (180 degrees) at 23 MPH (20 KT) gusting to 32 MPH (28 KT):0
Visibility: 10 mile(s):0
Sky conditions: clear
Temperature: 87.8 F (31.0 C)
Dew Point: 42.6 F (5.9 C)
Relative Humidity: 20%
Pressure (altimeter): 29.91 in. Hg (1012 hPa)
ob: KOGA 192135Z AUTO 18020G28KT 10SM CLR 31/06 A2991 RMK AO2 T03100059
cycle: 21

Station Type Date Time Source
KOGA TAF UTC NOAA

Error!

Example: see airport list